Time;durP1;ratioP1;P1;durP2;ratioP2;P2;SDS_P1;SDS_P2;PMS_P1;PMS_P2;Temp;Humidity;BMP_temperature;BMP_pressure;BME280_temperature;BME280_humidity;BME280_pressure;Samples;Min_cycle;Max_cycle;Signal;HPM_P1;HPM_P2
2022/01/11 00:00:10;;;;;;;129.93;58.00;;;;;;;-10.35;82.68;101363.17;1743658;82;20903;-70
2022/01/11 00:02:42;;;;;;;128.07;57.65;;;;;;;-10.46;82.55;101360.36;1766970;79;20878;-70
2022/01/11 00:05:08;;;;;;;125.87;56.20;;;;;;;-10.47;82.81;101358.23;1723195;82;21402;-70
2022/01/11 00:07:36;;;;;;;124.38;50.15;;;;;;;-10.37;83.25;101362.19;1761515;79;20933;-70
2022/01/11 00:10:07;;;;;;;115.35;52.35;;;;;;;-10.40;82.77;101369.18;1715625;82;21004;-70
2022/01/11 00:12:33;;;;;;;125.58;54.95;;;;;;;-10.53;82.49;101372.09;1757867;80;20926;-70
2022/01/11 00:15:00;;;;;;;133.32;60.55;;;;;;;-10.56;82.67;101364.33;1733526;81;20947;-70
2022/01/11 00:17:26;;;;;;;143.60;64.90;;;;;;;-10.51;82.87;101370.55;1760126;80;21349;-70
2022/01/11 00:19:53;;;;;;;157.43;65.67;;;;;;;-10.40;83.19;101370.44;1746111;81;21460;-70
2022/01/11 00:22:26;;;;;;;150.32;69.53;;;;;;;-10.30;83.25;101373.57;1740052;80;21022;-70
2022/01/11 00:24:49;;;;;;;147.30;63.20;;;;;;;-10.24;83.20;101377.31;1764661;80;21037;-70
2022/01/11 00:27:18;;;;;;;142.37;64.20;;;;;;;-10.28;82.90;101382.97;1733619;82;20903;-70
2022/01/11 00:29:48;;;;;;;145.97;66.70;;;;;;;-10.31;82.90;101371.41;1769156;80;20909;-70
2022/01/11 00:32:16;;;;;;;141.75;63.73;;;;;;;-10.24;83.13;101376.05;1717372;82;20970;-70
2022/01/11 00:34:49;;;;;;;129.90;63.23;;;;;;;-10.15;83.39;101377.88;1762132;80;21062;-70
2022/01/11 00:37:09;;;;;;;129.72;62.20;;;;;;;-10.02;83.58;101376.13;1766440;80;20977;-70
2022/01/11 00:39:35;;;;;;;136.20;61.30;;;;;;;-9.91;83.61;101380.19;1734481;82;21465;-70
2022/01/11 00:42:02;;;;;;;141.33;65.10;;;;;;;-9.86;83.52;101378.79;1764907;79;21636;-69
2022/01/11 00:44:29;;;;;;;138.03;65.45;;;;;;;-9.85;83.33;101378.03;1732882;82;21681;-68
2022/01/11 00:46:56;;;;;;;139.07;65.08;;;;;;;-9.85;83.29;101385.62;1727395;82;22012;-68
2022/01/11 00:49:23;;;;;;;126.27;61.08;;;;;;;-9.89;83.05;101387.45;1748591;81;20897;-68
2022/01/11 00:51:50;;;;;;;118.82;60.38;;;;;;;-9.96;82.91;101394.19;1758385;80;20932;-67
2022/01/11 00:54:17;;;;;;;130.40;59.55;;;;;;;-9.98;83.00;101393.21;1731724;82;20922;-68
2022/01/11 00:56:44;;;;;;;116.82;54.90;;;;;;;-10.03;82.92;101393.31;1756674;80;21531;-68
2022/01/11 00:59:10;;;;;;;136.97;61.13;;;;;;;-10.08;83.02;101396.84;1731135;82;21052;-68
2022/01/11 01:01:37;;;;;;;130.55;59.42;;;;;;;-10.08;83.10;101396.84;1731660;81;20931;-68
2022/01/11 01:04:07;;;;;;;128.55;58.95;;;;;;;-10.08;83.13;101400.98;1731180;82;20954;-68
2022/01/11 01:06:34;;;;;;;121.80;56.60;;;;;;;-10.09;83.16;101394.20;1748527;81;20996;-68
2022/01/11 01:09:04;;;;;;;138.47;61.37;;;;;;;-10.15;83.01;101393.03;1757010;80;20995;-68
2022/01/11 01:11:31;;;;;;;155.50;67.15;;;;;;;-10.19;83.01;101396.16;1751303;80;21890;-68
2022/01/11 01:13:58;;;;;;;136.43;62.73;;;;;;;-10.20;83.20;101398.18;1754630;80;20940;-67
2022/01/11 01:16:24;;;;;;;;;;;;;;;-10.14;83.36;101401.48;1745832;80;20976;-67
2022/01/11 01:18:51;;;;;;;172.87;75.10;;;;;;;-10.08;83.47;101404.78;1727004;81;20123;-68
2022/01/11 01:21:20;;;;;;;137.43;61.08;;;;;;;-10.03;83.52;101408.08;1746667;79;20992;-68
2022/01/11 01:23:46;;;;;;;146.47;63.20;;;;;;;-10.02;83.47;101399.73;1755488;80;21050;-68
2022/01/11 01:26:16;;;;;;;143.60;68.90;;;;;;;-9.99;83.40;101406.64;1740963;82;20894;-68
2022/01/11 01:28:49;;;;;;;157.30;68.47;;;;;;;-10.02;83.15;101411.50;1741807;81;20980;-68
2022/01/11 01:31:14;;;;;;;145.72;70.70;;;;;;;-10.05;83.11;101404.97;1741364;81;20965;-68
2022/01/11 01:33:41;;;;;;;128.93;63.58;;;;;;;-10.04;83.36;101410.53;1742549;81;20871;-68
2022/01/11 01:36:11;;;;;;;130.57;63.75;;;;;;;-10.03;83.42;101407.20;1759644;80;21857;-68
2022/01/11 01:38:37;;;;;;;132.05;61.00;;;;;;;-10.03;83.42;101413.52;1732498;81;20967;-68
2022/01/11 01:41:13;;;;;;;122.65;60.83;;;;;;;-10.10;83.26;101413.55;1762956;80;20903;-68
2022/01/11 01:43:35;;;;;;;139.12;65.85;;;;;;;-10.12;83.32;101406.64;1760884;80;20898;-68
2022/01/11 01:46:01;;;;;;;147.05;66.28;;;;;;;-10.14;83.41;101412.48;1764349;80;20941;-68
2022/01/11 01:48:29;;;;;;;141.00;65.20;;;;;;;-10.12;83.47;101420.14;1730719;82;21068;-68
2022/01/11 01:50:55;;;;;;;;;;;;;;;-10.10;83.59;101411.41;1768354;80;20852;-68
2022/01/11 01:53:23;;;;;;;125.33;58.42;;;;;;;-10.08;83.56;101416.15;1731610;82;20094;-68
2022/01/11 01:55:50;;;;;;;131.78;59.13;;;;;;;-10.09;83.67;101416.94;1755325;80;20969;-68
2022/01/11 01:58:17;;;;;;;121.50;56.37;;;;;;;-10.09;83.58;101419.47;1761746;80;21504;-68
2022/01/11 02:00:51;;;;;;;133.65;58.00;;;;;;;-10.14;83.32;101415.02;1732934;82;21138;-68
2022/01/11 02:03:16;;;;;;;122.45;56.88;;;;;;;-10.19;83.41;101413.84;1758748;80;20992;-68
2022/01/11 02:05:46;;;;;;;129.45;58.85;;;;;;;-10.11;83.87;101413.43;1757402;80;21481;-68
2022/01/11 02:08:13;;;;;;;115.45;57.05;;;;;;;-9.98;84.20;101408.38;1733384;81;20935;-68
2022/01/11 02:10:40;;;;;;;134.15;58.60;;;;;;;-9.91;84.08;101405.47;1720111;80;20994;-68
2022/01/11 02:13:10;;;;;;;119.45;59.60;;;;;;;-9.95;83.69;101404.77;1749055;80;21049;-69
2022/01/11 02:15:37;;;;;;;127.80;60.38;;;;;;;-9.99;83.57;101407.91;1720105;81;20925;-68
2022/01/11 02:18:21;;;;;;;125.58;54.70;;;;;;;-9.99;83.72;101409.16;1737029;81;20977;-68
2022/01/11 02:20:50;;;;;;;123.50;60.67;;;;;;;-9.96;83.91;101401.77;1719679;80;20901;-68
2022/01/11 02:23:24;;;;;;;110.48;54.53;;;;;;;-9.94;83.85;101396.40;1742513;81;21001;-68
2022/01/11 02:25:49;;;;;;;123.45;55.80;;;;;;;-9.94;83.79;101406.14;1747102;80;21011;-68
2022/01/11 02:28:21;;;;;;;123.80;55.95;;;;;;;-9.94;83.76;101400.19;1747316;80;20918;-68
2022/01/11 02:30:48;;;;;;;113.68;54.60;;;;;;;-10.02;83.33;101414.03;1754975;80;20926;-68
2022/01/11 02:33:32;;;;;;;112.28;56.58;;;;;;;-10.19;82.90;101416.37;1745704;79;20921;-68
2022/01/11 02:35:52;;;;;;;114.12;54.83;;;;;;;-10.33;82.91;101407.08;1738319;79;21548;-68
2022/01/11 02:38:19;;;;;;;120.33;54.53;;;;;;;-10.37;83.12;101405.12;1730480;80;21480;-68
2022/01/11 02:40:46;;;;;;;114.30;54.35;;;;;;;-10.41;83.07;101404.06;1749696;80;20957;-68
2022/01/11 02:43:13;;;;;;;121.55;54.03;;;;;;;-10.47;82.97;101403.67;1758860;80;20968;-68
2022/01/11 02:45:40;;;;;;;99.72;47.33;;;;;;;-10.49;83.02;101395.12;1723558;81;20893;-68
2022/01/11 02:48:07;;;;;;;96.65;48.80;;;;;;;-10.51;83.12;101404.62;1752522;80;21508;-68
2022/01/11 02:50:34;;;;;;;101.62;49.77;;;;;;;-10.54;83.19;101403.17;1746697;80;22371;-68
2022/01/11 02:53:01;;;;;;;109.12;52.35;;;;;;;-10.54;83.32;101408.22;1750445;80;25537;-68
2022/01/11 02:55:28;;;;;;;95.38;47.98;;;;;;;-10.53;83.41;101403.25;1751023;80;26244;-68
2022/01/11 02:57:55;;;;;;;97.00;46.77;;;;;;;-10.50;83.46;101402.58;1750012;80;21473;-68
2022/01/11 03:00:24;;;;;;;101.62;49.60;;;;;;;-10.50;83.40;101406.37;1700723;80;20973;-68
2022/01/11 03:02:51;;;;;;;99.13;48.92;;;;;;;-10.53;83.35;101402.39;1743946;80;21057;-68
2022/01/11 03:05:18;;;;;;;106.55;49.83;;;;;;;-10.57;83.21;101408.03;1752322;79;26634;-68
2022/01/11 03:07:44;;;;;;;104.53;51.15;;;;;;;-10.61;83.17;101407.83;1757445;79;20968;-68
2022/01/11 03:10:37;;;;;;;106.20;53.10;;;;;;;-10.61;83.21;101404.05;1747030;80;20891;-68
2022/01/11 03:12:45;;;;;;;110.20;52.08;;;;;;;-10.69;83.35;101396.36;1771081;80;20906;-68
2022/01/11 03:15:13;;;;;;;114.35;55.17;;;;;;;-10.80;83.41;101404.89;1783289;79;21428;-67
2022/01/11 03:17:40;;;;;;;108.22;51.15;;;;;;;-10.84;83.47;101405.45;1782747;79;20926;-69
2022/01/11 03:20:10;;;;;;;108.12;51.08;;;;;;;-10.85;83.47;101403.71;1789163;80;26337;-68
2022/01/11 03:22:38;;;;;;;102.27;49.63;;;;;;;-10.89;83.40;101406.82;1722829;83;21436;-68
2022/01/11 03:25:06;;;;;;;101.55;47.13;;;;;;;-10.92;83.40;101408.75;1735830;81;20962;-68
2022/01/11 03:27:34;;;;;;;98.25;46.88;;;;;;;-10.94;83.45;101409.42;1738251;81;21718;-68
2022/01/11 03:30:04;;;;;;;87.45;42.43;;;;;;;-10.96;83.53;101412.22;1741413;81;21495;-68
2022/01/11 03:32:31;;;;;;;85.20;40.30;;;;;;;-10.97;83.61;101410.48;1733129;81;20928;-68
2022/01/11 03:34:58;;;;;;;85.65;39.90;;;;;;;-10.95;83.80;101421.53;1739181;81;20920;-68
2022/01/11 03:37:25;;;;;;;83.10;41.10;;;;;;;-10.88;84.11;101421.17;1741961;81;20916;-68
2022/01/11 03:39:52;;;;;;;81.17;38.13;;;;;;;-10.80;84.22;101425.08;1745157;81;21178;-68
2022/01/11 03:42:18;;;;;;;74.77;37.13;;;;;;;-10.70;84.39;101427.41;1741214;81;22312;-68
2022/01/11 03:44:45;;;;;;;80.27;40.30;;;;;;;-10.60;84.41;101422.20;1742729;81;20916;-68
2022/01/11 03:47:11;;;;;;;88.45;42.60;;;;;;;-10.49;84.50;101420.76;1730418;81;20960;-68
2022/01/11 03:49:39;;;;;;;94.85;44.42;;;;;;;-10.42;84.28;101427.94;1740547;81;20976;-68
2022/01/11 03:52:06;;;;;;;93.52;44.67;;;;;;;-10.36;84.20;101425.83;1735626;81;24243;-68
2022/01/11 03:54:50;;;;;;;98.58;46.33;;;;;;;-10.31;84.10;101423.19;1739801;81;20962;-68
2022/01/11 03:57:02;;;;;;;98.15;47.43;;;;;;;-10.29;83.99;101424.55;1737746;81;20957;-68
2022/01/11 03:59:28;;;;;;;;;;;;;;;-10.26;84.06;101419.27;1733693;81;21477;-68
2022/01/11 04:01:55;;;;;;;102.50;45.50;;;;;;;-10.19;84.16;101412.58;1713900;82;20136;-67
2022/01/11 04:04:22;;;;;;;95.87;45.38;;;;;;;-10.08;84.27;101418.67;1696981;82;21915;-68
2022/01/11 04:06:48;;;;;;;99.70;45.13;;;;;;;-10.05;84.15;101413.81;1735555;81;20983;-68
2022/01/11 04:09:15;;;;;;;95.62;46.80;;;;;;;-10.04;84.19;101418.11;1723804;82;20942;-68
2022/01/11 04:11:42;;;;;;;87.88;41.80;;;;;;;-9.98;84.26;101410.91;1724392;81;20946;-68
2022/01/11 04:14:09;;;;;;;74.53;37.85;;;;;;;-9.89;84.41;101405.14;1738006;81;20958;-68
2022/01/11 04:16:35;;;;;;;76.02;37.80;;;;;;;-9.83;84.52;101409.34;1737065;81;20989;-68
2022/01/11 04:19:02;;;;;;;84.92;40.65;;;;;;;-9.71;84.66;101405.02;1737549;81;20946;-68
2022/01/11 04:21:29;;;;;;;88.85;42.38;;;;;;;-9.66;84.45;101409.47;1737432;80;21504;-68
2022/01/11 04:23:56;;;;;;;83.62;39.85;;;;;;;-9.71;84.14;101408.81;1730727;82;20938;-68
2022/01/11 04:26:22;;;;;;;68.00;33.57;;;;;;;-9.75;84.05;101410.66;1759657;80;20945;-67
2022/01/11 04:28:50;;;;;;;80.65;37.93;;;;;;;-9.71;84.34;101411.74;1687834;82;22354;-67
2022/01/11 04:31:17;;;;;;;64.40;33.98;;;;;;;-9.66;84.34;101405.67;1735959;80;21433;-68
2022/01/11 04:33:44;;;;;;;75.52;34.55;;;;;;;-9.65;84.40;101408.71;1730075;82;20911;-68
2022/01/11 04:36:11;;;;;;;;;;;;;;;-9.60;84.30;101409.87;1763236;79;21386;-67
2022/01/11 04:38:39;;;;;;;71.82;35.98;;;;;;;-9.71;83.92;101420.19;1761849;79;20139;-67
2022/01/11 04:41:06;;;;;;;69.58;35.73;;;;;;;-9.77;83.93;101411.38;1764755;80;21204;-68
2022/01/11 04:43:33;;;;;;;76.00;37.00;;;;;;;-9.76;84.21;101408.92;1713596;82;20899;-68
2022/01/11 04:45:59;;;;;;;66.82;35.58;;;;;;;-9.66;84.48;101409.47;1763598;80;20907;-68
2022/01/11 04:48:29;;;;;;;62.55;32.25;;;;;;;-9.56;84.69;101405.47;1756744;81;21620;-68
2022/01/11 04:50:55;;;;;;;66.45;33.95;;;;;;;-9.55;84.84;101385.70;1754276;80;20963;-68
2022/01/11 04:53:22;;;;;;;67.97;36.20;;;;;;;-9.35;84.81;101402.97;1751783;80;21040;-68
2022/01/11 04:55:49;;;;;;;66.67;35.00;;;;;;;-9.25;84.78;101399.32;1733724;80;20992;-68
2022/01/11 04:58:17;;;;;;;69.40;36.42;;;;;;;-9.15;84.84;101400.75;1758222;81;20939;-68
2022/01/11 05:00:44;;;;;;;62.60;32.42;;;;;;;-9.02;84.96;101405.72;1758979;80;21471;-68
2022/01/11 05:03:11;;;;;;;62.88;33.20;;;;;;;-8.84;85.27;101399.21;1742632;81;21522;-68
2022/01/11 05:05:38;;;;;;;68.12;34.25;;;;;;;-8.68;85.30;101402.61;1752183;81;21900;-68
2022/01/11 05:08:05;;;;;;;67.40;32.75;;;;;;;-8.59;85.20;101399.35;1753691;81;20865;-68
2022/01/11 05:10:32;;;;;;;58.50;31.70;;;;;;;-8.51;85.10;101404.46;1759016;80;20901;-68
2022/01/11 05:12:59;;;;;;;66.75;33.38;;;;;;;-8.43;85.17;101404.50;1764182;80;21471;-68
2022/01/11 05:15:26;;;;;;;59.73;31.95;;;;;;;-8.27;85.41;101409.11;1778065;80;20946;-67
2022/01/11 05:17:53;;;;;;;60.43;31.37;;;;;;;-8.16;85.48;101410.57;1746968;81;21877;-67
2022/01/11 05:20:20;;;;;;;65.05;35.43;;;;;;;-8.08;85.39;101416.94;1751698;81;28154;-66
2022/01/11 05:22:47;;;;;;;62.35;33.48;;;;;;;-7.97;85.50;101416.27;1787251;79;20926;-66
2022/01/11 05:25:16;;;;;;;75.83;37.75;;;;;;;-7.85;85.59;101417.31;1782530;79;26569;-66
2022/01/11 05:27:43;;;;;;;74.62;37.28;;;;;;;-7.78;85.51;101415.60;1752530;81;20993;-67
2022/01/11 05:30:11;;;;;;;70.47;36.05;;;;;;;-7.69;85.59;101419.89;1779602;79;21034;-68
2022/01/11 05:32:38;;;;;;;72.53;37.67;;;;;;;-7.60;85.59;101422.91;1774614;80;20967;-68
2022/01/11 05:35:07;;;;;;;83.90;41.37;;;;;;;-7.56;85.45;101427.38;1776065;79;20937;-67
2022/01/11 05:37:34;;;;;;;90.65;44.53;;;;;;;-7.56;85.34;101422.30;1751339;81;20962;-68
2022/01/11 05:40:12;;;;;;;85.38;42.00;;;;;;;-7.57;85.26;101425.61;1783775;80;21433;-67
2022/01/11 05:42:39;;;;;;;104.03;49.83;;;;;;;-7.67;84.92;101423.39;1783010;79;21869;-68
2022/01/11 05:45:08;;;;;;;62.55;33.20;;;;;;;-7.77;84.98;101429.62;1727774;81;20955;-68
2022/01/11 05:47:34;;;;;;;57.25;30.37;;;;;;;-7.77;85.37;101437.63;1756078;81;20949;-68
2022/01/11 05:50:04;;;;;;;66.15;33.95;;;;;;;-7.58;86.27;101435.28;1754256;81;20974;-68
2022/01/11 05:52:31;;;;;;;76.62;40.40;;;;;;;-7.29;87.02;101439.75;1783622;79;20905;-68
2022/01/11 05:54:58;;;;;;;96.82;46.73;;;;;;;-7.02;87.38;101441.17;1772687;80;21052;-68
2022/01/11 05:57:26;;;;;;;94.17;45.25;;;;;;;-6.88;86.90;101441.02;1730570;81;21457;-68
2022/01/11 05:59:52;;;;;;;;;;;;;;;-6.85;86.29;101431.01;1757409;80;21404;-68
2022/01/11 06:02:19;;;;;;;88.53;43.00;;;;;;;-6.85;86.07;101432.28;1753996;81;20167;-68
2022/01/11 06:04:46;;;;;;;89.20;45.80;;;;;;;-6.80;86.18;101432.98;1780691;80;20994;-68
2022/01/11 06:07:12;;;;;;;90.70;44.98;;;;;;;-6.74;86.12;101440.04;1779908;80;21117;-68
2022/01/11 06:09:39;;;;;;;73.23;38.83;;;;;;;-6.64;86.22;101443.48;1757060;80;21614;-68
2022/01/11 06:12:09;;;;;;;88.20;42.73;;;;;;;-6.55;86.33;101449.45;1776591;80;20911;-68
2022/01/11 06:14:42;;;;;;;70.45;39.90;;;;;;;-6.47;86.30;101449.80;1774259;80;20895;-70
2022/01/11 06:17:06;;;;;;;78.30;41.25;;;;;;;-6.39;86.46;101448.52;1754845;81;21718;-69
2022/01/11 06:19:34;;;;;;;81.78;44.18;;;;;;;-6.28;86.58;101456.67;1771911;80;21039;-68
2022/01/11 06:22:00;;;;;;;87.42;45.85;;;;;;;-6.13;86.90;101453.20;1767000;79;21005;-70
2022/01/11 06:24:28;;;;;;;77.17;43.10;;;;;;;-6.00;86.85;101461.41;1748908;80;20958;-67
2022/01/11 06:26:55;;;;;;;83.60;42.80;;;;;;;-5.93;86.77;101467.27;1761894;81;20946;-68
2022/01/11 06:29:22;;;;;;;78.50;43.60;;;;;;;-5.81;86.94;101465.66;1780453;80;20899;-68
2022/01/11 06:31:49;;;;;;;84.77;43.90;;;;;;;-5.76;86.80;101472.71;1742202;81;21879;-68
2022/01/11 06:34:16;;;;;;;81.22;43.02;;;;;;;-5.69;86.77;101470.91;1762908;81;21498;-67
2022/01/11 06:36:43;;;;;;;80.75;42.33;;;;;;;-5.56;87.05;101477.86;1763995;80;20907;-67
2022/01/11 06:39:10;;;;;;;70.70;38.60;;;;;;;-5.47;86.98;101465.54;1757250;81;20969;-67
2022/01/11 06:41:36;;;;;;;69.77;37.53;;;;;;;-5.42;86.89;101481.91;1782980;80;20903;-67
2022/01/11 06:44:05;;;;;;;65.52;38.48;;;;;;;-5.38;86.80;101483.77;1752711;81;21020;-68
2022/01/11 06:46:33;;;;;;;69.53;38.60;;;;;;;-5.35;86.83;101478.81;1784312;80;20918;-67
2022/01/11 06:49:01;;;;;;;79.72;41.05;;;;;;;-5.32;86.77;101484.08;1730390;81;21449;-67
2022/01/11 06:51:32;;;;;;;73.57;41.25;;;;;;;-5.29;86.84;101484.20;1762096;81;20941;-67
2022/01/11 06:53:59;;;;;;;71.53;41.05;;;;;;;-5.23;86.96;101481.06;1784753;80;20954;-67
2022/01/11 06:56:28;;;;;;;103.30;50.25;;;;;;;-5.18;87.03;101485.56;1755010;80;20942;-66
2022/01/11 06:58:55;;;;;;;;;;;;;;;-5.09;87.16;101494.41;1762733;81;20965;-67
2022/01/11 07:01:22;;;;;;;86.92;42.08;;;;;;;-5.00;87.20;101492.27;1758575;81;20118;-67
2022/01/11 07:03:48;;;;;;;90.25;45.63;;;;;;;-4.97;87.20;101502.59;1762810;80;20922;-68
2022/01/11 07:06:15;;;;;;;92.83;46.67;;;;;;;-4.97;87.06;101494.95;1766106;81;21385;-67
2022/01/11 07:08:42;;;;;;;109.73;54.83;;;;;;;-4.95;87.08;101498.03;1785074;79;21053;-66
2022/01/11 07:11:11;;;;;;;108.97;53.50;;;;;;;-4.85;87.39;101495.47;1762285;80;20923;-66
2022/01/11 07:17:23;;;;;;;104.07;50.35;;;;;;;-4.68;87.42;101510.63;1762459;81;21444;-66
2022/01/11 07:19:53;;;;;;;80.85;44.75;;;;;;;-4.56;87.39;101513.72;1763932;81;20914;-66
2022/01/11 07:22:20;;;;;;;83.20;44.27;;;;;;;-4.43;87.58;101510.86;1800314;78;21190;-66
2022/01/11 07:24:47;;;;;;;80.55;45.35;;;;;;;-4.39;87.33;101510.20;1815885;78;20923;-66
2022/01/11 07:27:15;;;;;;;82.95;44.73;;;;;;;-4.35;87.33;101499.30;1791254;78;20898;-66
2022/01/11 07:29:41;;;;;;;81.08;44.03;;;;;;;-4.28;87.35;101509.38;1818211;78;20903;-67
2022/01/11 07:32:08;;;;;;;79.92;45.25;;;;;;;-4.21;87.42;101501.56;1815719;78;20958;-67
2022/01/11 07:34:35;;;;;;;85.87;43.70;;;;;;;-4.10;87.64;101513.94;1809483;78;21722;-67
2022/01/11 07:37:02;;;;;;;88.75;45.03;;;;;;;-4.03;87.57;101512.91;1817171;78;20973;-67
2022/01/11 07:39:29;;;;;;;85.62;47.10;;;;;;;-3.97;87.57;101523.39;1822907;78;20902;-68
2022/01/11 07:41:55;;;;;;;80.20;44.40;;;;;;;-3.90;87.70;101524.95;1814817;78;21543;-67
2022/01/11 07:44:22;;;;;;;71.57;40.20;;;;;;;-3.84;87.62;101521.39;1821994;78;20918;-67
2022/01/11 07:46:48;;;;;;;81.43;46.80;;;;;;;-3.75;87.67;101521.27;1814685;78;21174;-67
2022/01/11 07:49:15;;;;;;;88.67;47.50;;;;;;;-3.72;87.60;101532.48;1804780;78;20903;-67
2022/01/11 07:51:42;;;;;;;88.80;45.87;;;;;;;-3.68;87.55;101527.95;1778403;80;20906;-67
2022/01/11 07:54:09;;;;;;;89.77;45.60;;;;;;;-3.63;87.55;101530.70;1746462;81;20954;-68
2022/01/11 07:56:36;;;;;;;86.17;48.07;;;;;;;-3.57;87.54;101532.21;1742612;81;20867;-67
2022/01/11 07:59:03;;;;;;;99.47;50.95;;;;;;;-3.51;87.67;101535.00;1749373;80;21056;-68
2022/01/11 08:01:30;;;;;;;100.47;53.63;;;;;;;-3.41;87.84;101531.13;1756453;80;26657;-66
2022/01/11 08:03:57;;;;;;;133.35;64.00;;;;;;;-3.34;87.72;101530.95;1758097;81;20941;-66
2022/01/11 08:06:26;;;;;;;124.60;62.77;;;;;;;-3.27;87.83;101534.22;1771826;80;20945;-67
2022/01/11 08:08:52;;;;;;;133.78;65.85;;;;;;;-3.15;88.00;101541.05;1756908;81;20983;-66
2022/01/11 08:11:19;;;;;;;163.00;74.77;;;;;;;-3.08;87.93;101543.03;1754796;81;21136;-67
2022/01/11 08:13:46;;;;;;;151.82;77.45;;;;;;;-2.98;88.17;101540.40;1751028;81;20963;-68
2022/01/11 08:16:14;;;;;;;171.10;78.83;;;;;;;-2.86;88.29;101542.53;1763285;80;21603;-67
2022/01/11 08:18:41;;;;;;;;;;;;;;;-2.79;88.05;101549.62;1786090;79;20996;-69
2022/01/11 08:21:07;;;;;;;201.67;100.00;;;;;;;-2.75;87.95;101544.65;1788483;79;20439;-66
2022/01/11 08:23:34;;;;;;;203.80;97.17;;;;;;;-2.73;87.87;101551.11;1760040;80;21782;-67
2022/01/11 08:26:01;;;;;;;226.32;114.67;;;;;;;-2.69;87.83;101559.34;1760161;81;20954;-66
2022/01/11 08:28:28;;;;;;;177.62;86.75;;;;;;;-2.69;87.75;101567.01;1757877;81;20934;-66
2022/01/11 08:30:57;;;;;;;187.40;94.60;;;;;;;-2.65;87.80;101566.33;1785340;80;21418;-67
2022/01/11 08:33:25;;;;;;;209.62;105.07;;;;;;;-2.59;87.91;101565.67;1761614;81;21032;-67
2022/01/11 08:35:56;;;;;;;269.75;144.90;;;;;;;-2.54;87.99;101570.13;1752395;81;21112;-66
2022/01/11 08:38:23;;;;;;;199.85;107.12;;;;;;;-2.52;87.90;101565.95;1754925;81;20895;-68
2022/01/11 08:40:49;;;;;;;218.13;113.33;;;;;;;-2.39;88.15;101561.25;1775311;80;21389;-67
2022/01/11 08:43:16;;;;;;;184.20;91.30;;;;;;;-2.39;88.15;101561.25;1771770;80;21322;-68
2022/01/11 08:45:43;;;;;;;170.65;88.37;;;;;;;-2.26;88.28;101572.38;1784600;80;21453;-67
2022/01/11 08:48:10;;;;;;;159.55;78.00;;;;;;;-2.23;88.12;101576.33;1777052;80;21064;-68
2022/01/11 08:50:37;;;;;;;163.77;85.05;;;;;;;-2.25;87.79;101577.95;1781795;79;20903;-67
2022/01/11 08:53:06;;;;;;;178.70;97.53;;;;;;;-2.29;87.78;101578.67;1775171;79;21394;-66
2022/01/11 08:55:35;;;;;;;152.45;85.30;;;;;;;-2.22;88.07;101584.45;1761114;80;20926;-66
2022/01/11 08:58:03;;;;;;;125.95;73.07;;;;;;;-2.14;88.15;101581.75;1786734;79;20978;-67
2022/01/11 09:00:29;;;;;;;;;;;;;;;-2.12;88.08;101588.22;1786027;80;21051;-69
2022/01/11 09:02:58;;;;;;;132.95;74.07;;;;;;;-2.03;88.32;101590.66;1791628;79;20462;-68
2022/01/11 09:05:24;;;;;;;122.50;69.72;;;;;;;-2.04;88.04;101586.37;1780232;80;20961;-69
2022/01/11 09:07:51;;;;;;;121.72;72.03;;;;;;;-2.06;88.14;101586.72;1762683;80;20957;-70
2022/01/11 09:10:20;;;;;;;120.10;67.35;;;;;;;-1.99;88.29;101585.64;1785439;79;21984;-69
2022/01/11 09:12:50;;;;;;;123.02;71.37;;;;;;;-1.89;88.46;101582.58;1751889;81;21458;-69
2022/01/11 09:15:19;;;;;;;145.43;83.80;;;;;;;-1.75;88.69;101585.59;1787802;80;20910;-67
2022/01/11 09:17:46;;;;;;;135.75;78.60;;;;;;;-1.64;88.65;101592.80;1763337;81;21004;-68
2022/01/11 09:20:16;;;;;;;139.88;76.72;;;;;;;-1.60;88.27;101594.66;1776195;80;20986;-68
2022/01/11 09:22:44;;;;;;;106.87;65.47;;;;;;;-1.58;88.26;101592.13;1757898;80;20956;-68
2022/01/11 09:25:12;;;;;;;120.72;67.17;;;;;;;-1.52;88.24;101582.07;1748771;81;21512;-69
2022/01/11 09:27:39;;;;;;;109.27;62.58;;;;;;;-1.43;88.42;101586.61;1750093;81;20945;-67
2022/01/11 09:30:09;;;;;;;106.12;65.50;;;;;;;-1.39;88.23;101578.22;1752451;81;20934;-68
2022/01/11 09:32:37;;;;;;;122.75;73.10;;;;;;;-1.30;88.41;101570.80;1749684;81;21516;-68
2022/01/11 09:35:07;;;;;;;118.53;67.70;;;;;;;-1.17;88.51;101556.27;1755412;81;21432;-68
2022/01/11 09:37:34;;;;;;;111.95;66.10;;;;;;;-1.07;88.39;101555.24;1750976;81;21065;-68
2022/01/11 09:40:01;;;;;;;119.40;64.92;;;;;;;-0.98;88.39;101547.81;1770965;80;20922;-67
2022/01/11 09:42:29;;;;;;;129.30;67.75;;;;;;;-0.84;88.50;101552.95;1736819;80;21394;-68
2022/01/11 09:44:58;;;;;;;103.22;62.17;;;;;;;-0.73;88.48;101546.81;1769005;80;20847;-69
2022/01/11 09:47:26;;;;;;;114.08;66.45;;;;;;;-0.67;88.21;101553.42;1765279;80;20914;-69
2022/01/11 09:49:53;;;;;;;115.52;69.17;;;;;;;-0.80;87.54;101559.89;1774840;80;21858;-68
2022/01/11 09:52:20;;;;;;;108.60;65.80;;;;;;;-0.93;87.63;101559.08;1765659;80;20903;-68
2022/01/11 09:54:48;;;;;;;104.25;63.08;;;;;;;-0.85;88.17;101553.76;1761939;79;20930;-69
2022/01/11 09:57:15;;;;;;;104.25;64.55;;;;;;;-0.84;88.07;101556.80;1748755;80;20903;-68
2022/01/11 09:59:42;;;;;;;96.40;60.00;;;;;;;-0.84;88.09;101559.37;1789339;80;20930;-67
2022/01/11 10:02:09;;;;;;;93.30;59.70;;;;;;;-0.77;88.29;101552.70;1782120;80;20978;-68
2022/01/11 10:04:37;;;;;;;92.33;54.63;;;;;;;-0.70;88.53;101555.87;1753206;79;20855;-68
2022/01/11 10:07:08;;;;;;;92.37;57.15;;;;;;;-0.69;88.13;101559.78;1777594;80;21497;-67
2022/01/11 10:09:50;;;;;;;93.92;58.68;;;;;;;-0.68;88.35;101555.52;1781804;80;20892;-67
2022/01/11 10:12:18;;;;;;;98.80;60.75;;;;;;;-0.55;88.79;101564.44;1753344;80;20935;-67
2022/01/11 10:14:52;;;;;;;100.65;59.50;;;;;;;-0.41;88.85;101554.12;1777921;79;21264;-68
2022/01/11 10:17:23;;;;;;;102.32;62.35;;;;;;;-0.19;89.21;101553.42;1776165;80;20930;-68
2022/01/11 10:20:05;;;;;;;94.70;59.65;;;;;;;-0.07;88.87;101553.72;1780882;80;20934;-67
2022/01/11 10:22:34;;;;;;;87.57;53.75;;;;;;;-0.06;88.65;101551.59;1778114;80;20973;-68
2022/01/11 10:25:04;;;;;;;92.85;54.25;;;;;;;0.03;88.82;101551.85;1781628;79;20938;-68
2022/01/11 10:27:34;;;;;;;121.65;57.15;;;;;;;0.08;88.62;101551.52;1779488;80;21132;-68
2022/01/11 10:30:11;;;;;;;96.72;50.20;;;;;;;0.14;88.73;101549.13;1778409;79;21396;-68
2022/01/11 10:32:45;;;;;;;73.62;38.65;;;;;;;0.26;88.79;101550.26;1781564;80;20887;-68
2022/01/11 10:35:20;;;;;;;70.97;35.83;;;;;;;0.34;88.83;101547.46;1779027;79;20875;-68
2022/01/11 10:37:54;;;;;;;59.60;36.98;;;;;;;0.37;88.57;101544.96;1781169;79;20953;-68
2022/01/11 10:40:36;;;;;;;69.60;42.60;;;;;;;0.38;88.43;101550.54;1782435;80;21338;-68
2022/01/11 10:43:05;;;;;;;82.33;43.65;;;;;;;0.37;87.95;101548.81;1779768;80;20867;-69
2022/01/11 10:45:42;;;;;;;81.45;41.37;;;;;;;0.28;87.77;101542.15;1778314;79;20862;-69
2022/01/11 10:48:25;;;;;;;78.47;45.40;;;;;;;0.37;88.35;101543.25;1781555;80;21490;-69
2022/01/11 10:50:59;;;;;;;77.65;45.90;;;;;;;0.48;88.31;101545.19;1775786;80;20998;-68
2022/01/11 10:53:32;;;;;;;69.95;42.48;;;;;;;0.54;88.27;101544.06;1778763;80;21196;-69
2022/01/11 10:56:01;;;;;;;70.52;40.60;;;;;;;0.60;88.23;101536.48;1776904;80;20899;-68
2022/01/11 10:58:32;;;;;;;64.80;41.45;;;;;;;0.61;87.95;101541.64;1781598;80;20934;-68
2022/01/11 11:00:57;;;;;;;64.90;39.40;;;;;;;0.62;87.95;101545.11;1777443;80;20902;-67
2022/01/11 11:03:26;;;;;;;59.73;35.40;;;;;;;0.72;88.46;101546.17;1779326;80;20921;-68
2022/01/11 11:06:10;;;;;;;52.35;32.20;;;;;;;0.80;88.32;101542.06;1780184;80;21117;-68
2022/01/11 11:08:41;;;;;;;40.45;26.25;;;;;;;0.93;88.74;101544.08;1781743;80;20920;-67
2022/01/11 11:11:10;;;;;;;38.35;25.15;;;;;;;1.15;88.88;101549.64;1775679;80;20939;-69
2022/01/11 11:13:44;;;;;;;37.95;25.05;;;;;;;1.16;88.30;101544.97;1775943;80;20955;-68